Terminal Aerodrome Forecast
Issued by NWS

Home | Current Version | Previous Version | Graphics & Text | Print | Product List | Glossary On
Versions: 1 2 3 4 5 6 7 8 9 10 11 12 13 14 15 16
000
FTUS43 KMPX 181736
TAFRNH
TAF
KRNH 181736Z 1818/1918 14008KT P6SM -RA SCT035 OVC050
     FM182200 14009KT P6SM OVC035
     FM190000 13004KT P6SM OVC025=

USA.gov is the U.S. government's official web portal to all federal, state and local government web resources and services.